Time;durP1;ratioP1;P1;durP2;ratioP2;P2;SDS_P1;SDS_P2;PMS_P1;PMS_P2;Temp;Humidity;BMP_temperature;BMP_pressure;BME280_temperature;BME280_humidity;BME280_pressure;Samples;Min_cycle;Max_cycle;Signal;HPM_P1;HPM_P2
2021/08/31 00:01:20;;;;;;;13.00;9.27;;;16.50;99.90;;;;;;4376937;32;20556;-64
2021/08/31 00:03:47;;;;;;;13.10;9.13;;;16.50;99.90;;;;;;4376610;32;20160;-63
2021/08/31 00:06:13;;;;;;;14.20;10.30;;;16.50;99.90;;;;;;4376920;32;20159;-62
2021/08/31 00:08:40;;;;;;;15.10;10.27;;;16.50;99.90;;;;;;4376631;32;20599;-64
2021/08/31 00:11:11;;;;;;;17.10;10.70;;;16.50;99.90;;;;;;4378063;32;20160;-61
2021/08/31 00:13:38;;;;;;;13.40;8.83;;;16.50;99.90;;;;;;4374197;32;20589;-63
2021/08/31 00:16:06;;;;;;;18.00;9.73;;;16.50;99.90;;;;;;4393496;32;20136;-63
2021/08/31 00:18:34;;;;;;;20.00;10.57;;;16.50;99.90;;;;;;4377873;32;20175;-62
2021/08/31 00:21:01;;;;;;;13.90;9.17;;;16.60;99.90;;;;;;4377536;32;20145;-63
2021/08/31 00:23:28;;;;;;;16.30;9.43;;;16.50;99.90;;;;;;4376492;32;20569;-62
2021/08/31 00:25:55;;;;;;;17.23;10.40;;;16.50;99.90;;;;;;4376530;32;20212;-62
2021/08/31 00:28:22;;;;;;;17.27;10.17;;;16.50;99.90;;;;;;4376822;32;20153;-63
2021/08/31 00:30:49;;;;;;;19.90;9.30;;;16.50;99.90;;;;;;4376351;32;20211;-62
2021/08/31 00:33:16;;;;;;;15.87;9.43;;;16.50;99.90;;;;;;4376311;32;20163;-62
2021/08/31 00:35:47;;;;;;;22.27;10.63;;;16.50;99.90;;;;;;4376249;32;20177;-62
2021/08/31 00:38:14;;;;;;;15.20;8.83;;;16.50;99.90;;;;;;4376727;32;20212;-62
2021/08/31 00:40:44;;;;;;;16.23;10.17;;;16.50;99.90;;;;;;4379728;32;20148;-63
2021/08/31 00:43:10;;;;;;;17.83;9.47;;;16.50;99.90;;;;;;4391498;32;20148;-62
2021/08/31 00:45:39;;;;;;;17.07;9.27;;;16.40;99.90;;;;;;4375962;32;20160;-62
2021/08/31 00:48:06;;;;;;;16.00;10.17;;;16.50;99.90;;;;;;4376191;32;20182;-62
2021/08/31 00:50:33;;;;;;;17.73;10.33;;;16.50;99.90;;;;;;4377783;32;20190;-63
2021/08/31 00:53:01;;;;;;;16.50;9.77;;;16.50;99.90;;;;;;4375981;32;20163;-63
2021/08/31 00:55:28;;;;;;;14.70;10.27;;;16.50;99.90;;;;;;4384616;32;20178;-62
2021/08/31 00:57:55;;;;;;;18.33;9.27;;;16.50;99.90;;;;;;4391138;32;20171;-62
2021/08/31 01:00:22;;;;;;;15.10;9.60;;;16.40;99.90;;;;;;4391130;32;20148;-61
2021/08/31 01:02:49;;;;;;;18.63;9.73;;;16.50;99.90;;;;;;4391202;32;20281;-62
2021/08/31 01:05:16;;;;;;;16.00;9.83;;;16.50;99.90;;;;;;4385302;32;20231;-63
2021/08/31 01:07:43;;;;;;;14.77;9.77;;;16.50;99.90;;;;;;4377465;32;20179;-64
2021/08/31 01:10:14;;;;;;;14.53;9.20;;;16.50;99.90;;;;;;4373897;32;20164;-62
2021/08/31 01:12:41;;;;;;;16.17;9.23;;;16.40;99.90;;;;;;4391345;32;20161;-62
2021/08/31 01:15:09;;;;;;;18.00;10.63;;;16.30;99.90;;;;;;4377093;32;20171;-64
2021/08/31 01:17:36;;;;;;;18.43;9.50;;;16.30;99.90;;;;;;4375876;32;20179;-62
2021/08/31 01:20:06;;;;;;;14.17;10.10;;;16.20;99.90;;;;;;4376849;32;20163;-63
2021/08/31 01:22:33;;;;;;;18.17;10.17;;;16.20;99.90;;;;;;4375854;32;20174;-63
2021/08/31 01:25:06;;;;;;;19.97;10.47;;;16.20;99.90;;;;;;4375797;32;20156;-63
2021/08/31 01:27:33;;;;;;;20.10;10.77;;;16.10;99.90;;;;;;4375754;32;20144;-62
2021/08/31 01:30:00;;;;;;;16.37;10.07;;;16.10;99.90;;;;;;4375744;32;20612;-62
2021/08/31 01:32:28;;;;;;;19.40;10.40;;;16.10;99.90;;;;;;4374825;32;20186;-63
2021/08/31 01:34:55;;;;;;;16.60;9.67;;;16.00;99.90;;;;;;4375575;32;20145;-63
2021/08/31 01:37:22;;;;;;;17.47;9.00;;;16.00;99.90;;;;;;4375489;32;20215;-62
2021/08/31 01:39:49;;;;;;;17.27;10.67;;;16.00;99.90;;;;;;4375732;32;20187;-62
2021/08/31 01:42:17;;;;;;;14.87;9.43;;;16.00;99.90;;;;;;4375198;32;20148;-63
2021/08/31 01:44:44;;;;;;;18.63;9.83;;;16.00;99.90;;;;;;4376908;32;20144;-62
2021/08/31 01:47:11;;;;;;;20.47;10.03;;;16.00;99.90;;;;;;4373264;32;20153;-62
2021/08/31 01:49:38;;;;;;;24.00;11.63;;;16.00;99.90;;;;;;4377315;32;20316;-62
2021/08/31 01:52:05;;;;;;;13.60;9.27;;;16.00;99.90;;;;;;4373953;32;20163;-62
2021/08/31 01:54:32;;;;;;;16.33;9.43;;;16.00;99.90;;;;;;4375751;32;20137;-61
2021/08/31 01:56:59;;;;;;;20.97;10.50;;;15.90;99.90;;;;;;4375421;32;20156;-62
2021/08/31 01:59:27;;;;;;;16.57;9.93;;;15.90;99.90;;;;;;4375428;32;20155;-61
2021/08/31 02:01:56;;;;;;;16.47;9.57;;;16.00;99.90;;;;;;4382745;32;20168;-62
2021/08/31 02:04:24;;;;;;;15.20;9.00;;;16.00;99.90;;;;;;4204662;32;6024078;-62
2021/08/31 02:06:52;;;;;;;18.80;10.07;;;16.00;99.90;;;;;;4376740;32;20152;-63
2021/08/31 02:09:20;;;;;;;17.10;9.67;;;16.00;99.90;;;;;;4375325;32;20171;-63
2021/08/31 02:11:47;;;;;;;17.97;10.03;;;15.90;99.90;;;;;;4375248;32;20242;-63
2021/08/31 02:14:14;;;;;;;16.33;9.53;;;15.90;99.90;;;;;;4375689;32;20161;-64
2021/08/31 02:16:42;;;;;;;16.23;9.87;;;15.90;99.90;;;;;;4375363;32;20176;-62
2021/08/31 02:19:09;;;;;;;14.10;9.73;;;15.90;99.90;;;;;;4375919;32;20207;-62
2021/08/31 02:21:36;;;;;;;19.77;10.03;;;15.90;99.90;;;;;;4369283;32;20171;-63
2021/08/31 02:24:05;;;;;;;16.33;9.97;;;15.90;99.90;;;;;;4374956;32;20172;-64
2021/08/31 02:26:33;;;;;;;17.63;9.83;;;15.80;99.90;;;;;;4375773;32;20179;-62
2021/08/31 02:29:01;;;;;;;19.53;11.80;;;15.80;99.90;;;;;;4376267;32;20200;-63
2021/08/31 02:31:28;;;;;;;19.23;10.10;;;15.80;99.90;;;;;;4375198;32;20149;-63
2021/08/31 02:33:58;;;;;;;20.60;10.97;;;15.80;99.90;;;;;;4375594;32;20175;-63
2021/08/31 02:36:25;;;;;;;15.77;10.70;;;15.70;99.90;;;;;;4375362;32;20170;-62
2021/08/31 02:38:52;;;;;;;20.30;10.47;;;15.70;99.90;;;;;;4376581;32;20627;-63
2021/08/31 02:41:19;;;;;;;14.67;9.40;;;15.70;99.90;;;;;;4375203;32;20149;-63
2021/08/31 02:43:46;;;;;;;20.33;10.30;;;15.80;99.90;;;;;;4375159;32;20172;-63
2021/08/31 02:46:13;;;;;;;20.20;10.23;;;15.80;99.90;;;;;;4377439;32;20224;-62
2021/08/31 02:48:40;;;;;;;16.83;10.03;;;15.70;99.90;;;;;;4393920;32;20578;-63
2021/08/31 02:51:09;;;;;;;12.90;8.57;;;15.70;99.90;;;;;;4391758;32;20447;-63
2021/08/31 02:53:38;;;;;;;14.50;9.80;;;15.70;99.90;;;;;;4383675;32;20178;-62
2021/08/31 02:56:05;;;;;;;15.00;10.00;;;15.70;99.90;;;;;;4377970;32;20148;-63
2021/08/31 02:58:32;;;;;;;18.93;9.20;;;15.60;99.90;;;;;;4377907;32;20176;-63
2021/08/31 03:01:07;;;;;;;15.23;9.23;;;15.50;99.90;;;;;;4377871;32;20148;-63
2021/08/31 03:03:34;;;;;;;15.03;9.13;;;15.40;99.90;;;;;;4377683;32;20232;-63
2021/08/31 03:06:03;;;;;;;16.40;9.00;;;15.40;99.90;;;;;;4377595;32;20635;-63
2021/08/31 03:08:35;;;;;;;11.37;8.50;;;15.50;99.90;;;;;;4378001;32;20235;-63
2021/08/31 03:11:02;;;;;;;15.50;9.63;;;15.40;99.90;;;;;;4382186;32;20178;-64
2021/08/31 03:13:29;;;;;;;18.60;9.73;;;15.50;99.90;;;;;;4394454;32;20153;-64
2021/08/31 03:15:58;;;;;;;15.07;8.77;;;15.50;99.90;;;;;;4368650;32;20191;-64
2021/08/31 03:18:25;;;;;;;16.47;9.60;;;15.40;99.90;;;;;;4370538;32;20224;-63
2021/08/31 03:20:52;;;;;;;15.17;8.53;;;15.40;99.90;;;;;;4389060;32;20178;-63
2021/08/31 03:23:19;;;;;;;14.40;8.17;;;15.40;99.90;;;;;;4392249;32;20528;-64
2021/08/31 03:25:47;;;;;;;17.83;10.07;;;15.30;99.90;;;;;;4393138;32;20164;-62
2021/08/31 03:28:14;;;;;;;16.17;9.53;;;15.30;99.90;;;;;;4391777;32;20156;-62
2021/08/31 03:30:41;;;;;;;15.33;8.97;;;15.30;99.90;;;;;;4392978;32;20234;-64
2021/08/31 03:33:07;;;;;;;13.70;8.97;;;15.30;99.90;;;;;;4392413;32;20152;-62
2021/08/31 03:35:34;;;;;;;15.60;8.97;;;15.30;99.90;;;;;;4392296;32;20152;-63
2021/08/31 03:38:01;;;;;;;20.97;9.70;;;15.20;99.90;;;;;;4392262;32;20195;-63
2021/08/31 03:40:31;;;;;;;13.33;8.53;;;15.10;99.90;;;;;;4382287;32;20191;-63
2021/08/31 03:43:02;;;;;;;16.37;8.67;;;15.10;99.90;;;;;;4377272;32;20168;-63
2021/08/31 03:45:30;;;;;;;19.97;10.00;;;15.00;99.90;;;;;;4376893;32;20179;-63
2021/08/31 03:47:58;;;;;;;13.23;9.00;;;15.00;99.90;;;;;;4376091;32;20507;-63
2021/08/31 03:50:25;;;;;;;14.23;8.30;;;15.00;99.90;;;;;;4377683;32;20160;-62
2021/08/31 03:52:52;;;;;;;13.53;8.30;;;15.00;99.90;;;;;;4387526;32;20175;-63
2021/08/31 03:55:19;;;;;;;12.83;8.60;;;14.90;99.90;;;;;;4392014;32;20494;-63
2021/08/31 03:57:46;;;;;;;15.70;8.10;;;14.90;99.90;;;;;;4383699;32;20470;-63
2021/08/31 04:00:15;;;;;;;18.80;8.67;;;14.90;99.90;;;;;;4376533;32;20198;-62
2021/08/31 04:02:42;;;;;;;15.03;8.50;;;14.90;99.90;;;;;;4361831;33;20152;-62
2021/08/31 04:05:10;;;;;;;14.50;8.83;;;14.80;99.90;;;;;;4361956;33;20172;-62
2021/08/31 04:07:36;;;;;;;18.10;10.70;;;14.80;99.90;;;;;;4368167;32;20617;-62
2021/08/31 04:10:04;;;;;;;19.90;10.77;;;14.70;99.90;;;;;;4376848;32;20234;-62
2021/08/31 04:12:31;;;;;;;18.17;11.20;;;14.70;99.90;;;;;;4375802;32;20199;-62
2021/08/31 04:14:58;;;;;;;19.40;11.30;;;14.70;99.90;;;;;;4375946;32;20160;-62
2021/08/31 04:17:28;;;;;;;19.40;12.37;;;14.70;99.90;;;;;;4376428;32;20156;-63
2021/08/31 04:19:55;;;;;;;19.67;12.23;;;14.80;99.90;;;;;;4376744;32;20171;-63
2021/08/31 04:22:25;;;;;;;17.43;11.30;;;14.80;99.90;;;;;;4375871;32;20156;-63
2021/08/31 04:24:52;;;;;;;22.63;12.63;;;14.80;99.90;;;;;;4375424;32;20184;-64
2021/08/31 04:27:21;;;;;;;18.20;11.87;;;14.80;99.90;;;;;;4376769;32;20674;-62
2021/08/31 04:29:48;;;;;;;22.27;12.23;;;14.70;99.90;;;;;;4375627;32;20584;-63
2021/08/31 04:32:14;;;;;;;19.30;11.23;;;14.60;99.90;;;;;;4371524;32;20207;-62
2021/08/31 04:34:46;;;;;;;17.60;11.67;;;14.60;99.90;;;;;;4376027;32;20161;-62
2021/08/31 04:37:13;;;;;;;16.57;10.87;;;14.50;99.90;;;;;;4376095;32;20161;-63
2021/08/31 04:39:42;;;;;;;15.97;10.73;;;14.40;99.90;;;;;;4375810;32;20227;-64
2021/08/31 04:42:09;;;;;;;17.93;10.67;;;14.40;99.90;;;;;;4377742;32;20493;-62
2021/08/31 04:44:39;;;;;;;15.53;9.50;;;14.40;99.90;;;;;;4376178;32;20164;-62
2021/08/31 04:47:06;;;;;;;15.30;9.90;;;14.40;99.90;;;;;;4363808;32;20183;-63
2021/08/31 04:49:36;;;;;;;17.77;10.90;;;14.50;99.90;;;;;;4371563;32;20160;-62
2021/08/31 04:52:05;;;;;;;16.53;11.00;;;14.60;99.90;;;;;;4376565;32;20607;-64
2021/08/31 04:54:35;;;;;;;21.87;11.40;;;14.60;99.90;;;;;;4377847;32;20171;-63
2021/08/31 04:57:02;;;;;;;15.00;10.67;;;14.60;99.90;;;;;;4376107;32;20219;-63
2021/08/31 04:59:29;;;;;;;15.67;9.63;;;14.60;99.90;;;;;;4375719;32;20190;-63
2021/08/31 05:01:56;;;;;;;19.47;10.90;;;14.60;99.90;;;;;;4375795;32;20180;-63
2021/08/31 05:04:28;;;;;;;15.43;9.73;;;14.60;99.90;;;;;;4375881;32;20178;-63
2021/08/31 05:06:55;;;;;;;12.43;9.20;;;14.60;99.90;;;;;;4375684;32;20153;-63
2021/08/31 05:09:24;;;;;;;14.73;9.93;;;14.60;99.90;;;;;;4375576;32;20167;-62
2021/08/31 05:11:52;;;;;;;14.57;9.67;;;14.50;99.90;;;;;;4375176;32;20179;-63
2021/08/31 05:14:19;;;;;;;16.33;9.80;;;14.50;99.90;;;;;;4389548;32;20171;-63
2021/08/31 05:16:46;;;;;;;17.90;9.20;;;14.50;99.90;;;;;;4391520;32;20571;-62
2021/08/31 05:19:13;;;;;;;16.17;9.37;;;14.50;99.90;;;;;;4385599;32;20183;-64
2021/08/31 05:21:40;;;;;;;13.93;9.37;;;14.50;99.90;;;;;;4360793;33;20212;-63
2021/08/31 05:24:07;;;;;;;25.63;10.13;;;14.50;99.90;;;;;;4362649;32;20224;-63
2021/08/31 05:26:35;;;;;;;14.97;9.40;;;14.50;99.90;;;;;;4375392;32;20180;-63
2021/08/31 05:29:02;;;;;;;17.33;9.23;;;14.60;99.90;;;;;;4375101;32;20215;-62
2021/08/31 05:31:29;;;;;;;14.13;8.83;;;14.60;99.90;;;;;;4374016;32;20164;-63
2021/08/31 05:33:56;;;;;;;16.17;9.87;;;14.60;99.90;;;;;;4374941;32;20511;-62
2021/08/31 05:36:23;;;;;;;19.43;9.43;;;14.70;99.90;;;;;;4373970;32;20148;-64
2021/08/31 05:38:52;;;;;;;17.07;10.40;;;14.70;99.90;;;;;;4375266;32;20145;-63
2021/08/31 05:41:19;;;;;;;15.33;9.73;;;14.70;99.90;;;;;;4374964;32;20180;-63
2021/08/31 05:43:48;;;;;;;16.27;10.23;;;14.70;99.90;;;;;;4376077;32;20194;-63
2021/08/31 05:46:15;;;;;;;16.83;9.77;;;14.80;99.90;;;;;;4364486;32;20158;-62
2021/08/31 05:48:42;;;;;;;16.93;8.90;;;14.80;99.90;;;;;;4367500;32;20730;-63
2021/08/31 05:51:10;;;;;;;18.53;10.40;;;14.80;99.90;;;;;;4360243;32;20212;-63
2021/08/31 05:53:44;;;;;;;16.20;9.83;;;14.90;99.90;;;;;;4359020;32;20163;-64
2021/08/31 05:56:23;;;;;;;20.13;9.73;;;14.90;99.90;;;;;;4363744;32;20325;-63
2021/08/31 05:58:51;;;;;;;15.83;10.17;;;15.00;99.90;;;;;;4361204;32;20298;-62
2021/08/31 06:01:19;;;;;;;17.97;9.63;;;15.00;99.90;;;;;;4366234;32;20175;-62
2021/08/31 06:03:47;;;;;;;17.17;8.83;;;15.10;99.90;;;;;;4372847;32;20212;-63
2021/08/31 06:06:15;;;;;;;15.90;9.77;;;15.10;99.90;;;;;;4380256;32;20199;-63
2021/08/31 06:08:42;;;;;;;17.67;11.33;;;15.10;99.90;;;;;;4374072;32;20187;-62
2021/08/31 06:11:09;;;;;;;18.30;9.40;;;15.20;99.90;;;;;;4374004;32;20176;-63
2021/08/31 06:13:37;;;;;;;18.00;9.40;;;15.30;99.90;;;;;;4371689;32;20156;-63
2021/08/31 06:16:05;;;;;;;16.20;8.77;;;15.60;99.90;;;;;;4370377;32;20173;-63
2021/08/31 06:18:32;;;;;;;20.23;8.67;;;15.80;99.90;;;;;;4379872;32;20691;-63
2021/08/31 06:20:59;;;;;;;17.93;9.10;;;16.00;99.90;;;;;;4376432;32;20168;-63
2021/08/31 06:23:26;;;;;;;16.43;8.57;;;16.20;99.90;;;;;;4378973;32;20588;-63
2021/08/31 06:25:53;;;;;;;18.20;9.23;;;16.40;99.90;;;;;;4376843;32;20227;-64
2021/08/31 06:28:20;;;;;;;19.63;8.33;;;16.40;99.90;;;;;;4385807;32;20164;-63
2021/08/31 06:30:46;;;;;;;22.70;10.23;;;16.50;99.90;;;;;;4382486;32;20161;-64
2021/08/31 06:33:15;;;;;;;21.97;8.87;;;16.50;99.90;;;;;;4380170;32;20164;-63
2021/08/31 06:35:41;;;;;;;15.33;9.17;;;16.80;99.90;;;;;;4379232;32;20230;-62
2021/08/31 06:38:10;;;;;;;15.27;8.60;;;16.90;99.90;;;;;;4376678;32;20215;-61
2021/08/31 06:40:37;;;;;;;18.97;8.80;;;16.90;99.90;;;;;;4373991;32;20169;-62
2021/08/31 06:43:04;;;;;;;17.70;8.03;;;16.80;99.90;;;;;;4376164;32;20228;-62
2021/08/31 06:45:31;;;;;;;13.47;8.43;;;16.80;99.90;;;;;;4376330;32;20172;-63
2021/08/31 06:47:58;;;;;;;15.53;8.73;;;16.80;99.90;;;;;;4383432;32;20148;-63
2021/08/31 06:50:28;;;;;;;14.87;7.70;;;16.70;99.90;;;;;;4377694;32;20195;-63
2021/08/31 06:52:55;;;;;;;17.07;8.47;;;16.80;99.90;;;;;;4373641;32;20156;-63
2021/08/31 06:55:28;;;;;;;15.13;7.90;;;16.80;99.90;;;;;;4377950;32;20195;-62
2021/08/31 06:57:55;;;;;;;17.37;8.33;;;17.00;99.90;;;;;;4378334;32;20178;-63
2021/08/31 07:00:22;;;;;;;14.37;7.43;;;17.30;99.90;;;;;;4380859;32;20195;-63
2021/08/31 07:02:49;;;;;;;19.37;7.50;;;17.30;99.90;;;;;;4368133;32;20240;-62
2021/08/31 07:05:16;;;;;;;13.70;7.47;;;17.20;99.90;;;;;;4379548;32;20164;-63
2021/08/31 07:07:46;;;;;;;16.33;7.40;;;17.20;99.90;;;;;;4381447;32;20176;-63
2021/08/31 07:10:12;;;;;;;9.53;6.47;;;17.40;99.90;;;;;;4377534;32;20183;-63
2021/08/31 07:12:39;;;;;;;10.53;6.60;;;17.80;99.90;;;;;;4382284;32;20580;-63
2021/08/31 07:15:08;;;;;;;15.60;8.20;;;18.00;99.90;;;;;;4382030;32;20223;-63
2021/08/31 07:17:35;;;;;;;15.87;7.90;;;17.90;99.90;;;;;;4381385;32;20152;-63
2021/08/31 07:20:03;;;;;;;14.80;6.63;;;17.80;99.90;;;;;;4379802;32;20262;-63
2021/08/31 07:22:29;;;;;;;17.10;6.60;;;17.90;99.90;;;;;;4380012;32;20169;-63
2021/08/31 07:25:00;;;;;;;14.23;6.37;;;18.10;99.90;;;;;;4379290;32;20164;-62
2021/08/31 07:27:27;;;;;;;17.43;7.07;;;18.30;99.90;;;;;;4378343;32;20184;-63
2021/08/31 07:29:53;;;;;;;15.17;5.90;;;18.70;99.90;;;;;;4381521;32;20179;-63
2021/08/31 07:32:20;;;;;;;19.73;6.63;;;18.90;99.90;;;;;;4377916;32;20156;-62
2021/08/31 07:34:47;;;;;;;15.97;6.73;;;19.10;99.90;;;;;;4379704;32;20458;-63
2021/08/31 07:37:14;;;;;;;13.97;5.60;;;19.40;99.90;;;;;;4383354;32;20227;-63
2021/08/31 07:39:42;;;;;;;14.57;6.37;;;19.80;99.90;;;;;;4378308;32;20454;-62
2021/08/31 07:42:11;;;;;;;10.73;6.13;;;20.20;99.90;;;;;;4377906;32;20179;-62
2021/08/31 07:44:38;;;;;;;12.93;6.07;;;20.60;99.90;;;;;;4374796;32;20224;-62
2021/08/31 07:47:05;;;;;;;15.20;5.70;;;20.60;99.90;;;;;;4380866;32;20186;-62
2021/08/31 07:49:32;;;;;;;15.53;6.77;;;20.70;99.90;;;;;;4370564;32;20212;-62
2021/08/31 07:51:59;;;;;;;10.13;5.53;;;20.40;99.90;;;;;;4367323;32;20576;-62
2021/08/31 07:54:28;;;;;;;14.87;6.13;;;20.10;99.90;;;;;;4376085;32;20168;-61
2021/08/31 07:56:55;;;;;;;19.67;6.50;;;19.80;99.90;;;;;;4372490;32;20173;-61
2021/08/31 07:59:23;;;;;;;19.47;6.47;;;19.60;99.90;;;;;;4362299;32;20152;-63
2021/08/31 08:01:50;;;;;;;12.40;5.60;;;19.50;99.90;;;;;;4362249;32;20164;-63
2021/08/31 08:04:17;;;;;;;16.07;6.00;;;19.50;99.90;;;;;;4361667;32;20160;-64
2021/08/31 08:06:43;;;;;;;13.13;6.13;;;19.40;99.90;;;;;;4361774;33;20464;-63
2021/08/31 08:09:11;;;;;;;14.07;5.53;;;19.30;99.90;;;;;;4362089;32;20164;-62
2021/08/31 08:11:37;;;;;;;24.23;6.10;;;19.60;99.90;;;;;;4361848;33;20140;-62
2021/08/31 08:14:05;;;;;;;16.50;5.57;;;20.00;99.90;;;;;;4361813;32;20492;-62
2021/08/31 08:16:33;;;;;;;15.93;5.77;;;20.40;99.90;;;;;;4361882;32;20154;-63
2021/08/31 08:19:00;;;;;;;8.03;5.23;;;20.90;99.90;;;;;;4367634;32;20157;-64
2021/08/31 08:21:29;;;;;;;14.00;5.10;;;21.00;99.90;;;;;;4370788;32;20459;-64
2021/08/31 08:23:56;;;;;;;18.73;5.67;;;21.10;99.90;;;;;;4367799;32;20493;-64
2021/08/31 08:26:26;;;;;;;16.60;5.87;;;22.20;99.90;;;;;;4369074;32;20171;-62
2021/08/31 08:28:53;;;;;;;11.13;5.03;;;22.40;99.90;;;;;;4362456;32;20200;-65
2021/08/31 08:31:21;;;;;;;10.77;4.80;;;22.20;99.90;;;;;;4367907;32;20161;-63
2021/08/31 08:33:49;;;;;;;9.17;4.20;;;21.80;99.90;;;;;;4361462;33;20153;-62
2021/08/31 08:36:19;;;;;;;12.70;5.23;;;21.70;99.90;;;;;;4362178;32;20472;-65
2021/08/31 08:38:47;;;;;;;10.00;4.60;;;21.90;99.90;;;;;;4362867;32;20487;-64
2021/08/31 08:41:14;;;;;;;9.77;5.20;;;22.10;99.90;;;;;;4361483;33;20471;-65
2021/08/31 08:43:41;;;;;;;13.63;5.53;;;22.70;99.90;;;;;;4361028;32;20561;-63
2021/08/31 08:46:08;;;;;;;14.43;4.87;;;23.40;99.90;;;;;;4361959;32;20212;-64
2021/08/31 08:48:35;;;;;;;10.23;5.90;;;23.30;99.90;;;;;;4361505;33;20171;-64
2021/08/31 08:51:06;;;;;;;16.83;5.83;;;22.50;99.90;;;;;;4361207;33;20153;-62
2021/08/31 08:53:35;;;;;;;13.30;4.90;;;22.30;99.90;;;;;;4361381;32;20187;-63
2021/08/31 08:56:02;;;;;;;10.40;4.50;;;22.40;99.90;;;;;;4362015;32;20175;-66
2021/08/31 08:58:30;;;;;;;13.90;4.87;;;23.00;99.90;;;;;;4363003;32;20218;-66
2021/08/31 09:01:02;;;;;;;12.83;5.33;;;24.30;99.90;;;;;;4362471;32;20176;-65
2021/08/31 09:03:31;;;;;;;10.93;4.23;;;24.40;99.90;;;;;;4361140;33;20187;-64
2021/08/31 09:06:12;;;;;;;11.87;5.10;;;24.20;99.90;;;;;;4360907;32;20208;-64
2021/08/31 09:08:43;;;;;;;16.30;4.87;;;22.60;99.90;;;;;;4361109;33;20209;-66
2021/08/31 09:11:21;;;;;;;10.47;4.10;;;21.80;99.90;;;;;;4360966;33;20199;-64
2021/08/31 09:13:49;;;;;;;15.53;4.70;;;21.60;99.90;;;;;;4360906;33;20561;-62
2021/08/31 09:16:28;;;;;;;9.70;4.57;;;21.70;99.90;;;;;;4360978;33;20156;-62
2021/08/31 09:18:56;;;;;;;10.17;4.33;;;22.30;99.90;;;;;;4361042;33;20178;-63
2021/08/31 09:21:26;;;;;;;10.80;4.43;;;22.90;99.90;;;;;;4367367;32;20230;-62
2021/08/31 09:23:55;;;;;;;11.90;4.43;;;23.30;99.90;;;;;;4375741;32;20226;-64
2021/08/31 09:26:34;;;;;;;11.43;5.00;;;23.50;99.90;;;;;;4377773;32;20226;-62
2021/08/31 09:29:05;;;;;;;9.97;4.47;;;23.00;99.90;;;;;;4381972;32;20156;-63
2021/08/31 09:31:48;;;;;;;13.77;5.07;;;22.90;99.90;;;;;;4381285;32;20167;-62
2021/08/31 09:34:37;;;;;;;10.83;4.53;;;22.80;99.90;;;;;;4379341;32;20152;-63
2021/08/31 09:37:33;;;;;;;17.07;5.60;;;22.80;99.90;;;;;;4376799;32;20159;-63
2021/08/31 09:40:14;;;;;;;9.80;4.47;;;22.90;99.90;;;;;;4370420;32;20161;-64
2021/08/31 09:42:56;;;;;;;12.17;4.60;;;22.80;99.90;;;;;;4370832;32;20172;-62
2021/08/31 09:45:26;;;;;;;11.63;4.40;;;22.50;99.90;;;;;;4376688;32;20152;-64
2021/08/31 09:47:59;;;;;;;12.10;4.20;;;22.20;99.90;;;;;;4375469;32;20153;-62
2021/08/31 09:50:30;;;;;;;17.10;4.93;;;22.10;99.90;;;;;;4376995;32;20447;-65
2021/08/31 09:53:13;;;;;;;12.80;4.73;;;21.80;99.90;;;;;;4375542;32;20149;-63
2021/08/31 09:55:41;;;;;;;17.10;5.30;;;21.90;99.90;;;;;;4370965;32;20231;-63
2021/08/31 09:58:10;;;;;;;11.07;4.13;;;22.00;99.90;;;;;;4372649;32;20156;-63
2021/08/31 10:00:38;;;;;;;11.83;4.53;;;22.00;99.90;;;;;;4374009;32;20488;-63
2021/08/31 10:03:06;;;;;;;11.03;5.20;;;22.20;99.90;;;;;;4362822;32;20593;-63
2021/08/31 10:05:34;;;;;;;8.70;4.80;;;22.30;99.90;;;;;;4360946;32;20160;-63
2021/08/31 10:08:02;;;;;;;16.37;5.00;;;22.60;99.90;;;;;;4375119;32;20157;-63
2021/08/31 10:10:31;;;;;;;12.47;4.27;;;23.10;99.90;;;;;;4376616;32;20167;-63
2021/08/31 10:13:00;;;;;;;8.07;4.53;;;23.60;99.90;;;;;;4386501;32;20171;-61
2021/08/31 10:15:30;;;;;;;7.33;4.13;;;24.00;99.90;;;;;;4391286;32;20160;-63
2021/08/31 10:17:59;;;;;;;6.95;3.92;;;24.50;99.90;;;;;;4387333;32;20205;-62
2021/08/31 10:20:28;;;;;;;8.90;3.90;;;24.40;98.80;;;;;;4390815;32;20186;-65
2021/08/31 10:22:58;;;;;;;7.80;4.03;;;24.00;99.20;;;;;;4389757;32;20164;-63
2021/08/31 10:25:31;;;;;;;9.53;4.03;;;23.70;99.70;;;;;;4375385;32;20207;-62
2021/08/31 10:28:00;;;;;;;8.67;4.00;;;23.30;99.90;;;;;;4376079;32;20520;-63
2021/08/31 10:30:39;;;;;;;10.80;4.47;;;23.30;99.90;;;;;;4375313;32;20199;-63
2021/08/31 10:33:49;;;;;;;9.57;4.23;;;23.20;99.90;;;;;;4374974;32;20152;-63
2021/08/31 10:36:16;;;;;;;8.00;3.90;;;23.50;99.90;;;;;;4334026;33;20196;-63
2021/08/31 10:38:46;;;;;;;10.93;4.23;;;23.90;99.90;;;;;;4329482;33;20569;-64
2021/08/31 10:41:42;;;;;;;8.40;4.57;;;23.80;99.90;;;;;;4328633;33;20271;-63
2021/08/31 10:44:09;;;;;;;12.57;4.60;;;23.40;99.90;;;;;;4329052;33;20196;-63
2021/08/31 10:47:13;;;;;;;8.97;4.20;;;22.90;99.90;;;;;;4328193;33;20166;-63
2021/08/31 10:50:15;;;;;;;10.20;4.67;;;22.60;99.90;;;;;;4331712;33;20176;-63
2021/08/31 10:52:49;;;;;;;9.80;4.53;;;22.40;99.90;;;;;;4322680;33;20183;-64
2021/08/31 10:55:39;;;;;;;11.10;5.53;;;22.30;99.90;;;;;;4327817;33;20637;-63
2021/08/31 10:58:10;;;;;;;7.63;4.27;;;21.90;99.90;;;;;;4323200;33;20185;-63
2021/08/31 11:00:55;;;;;;;11.90;5.00;;;22.20;99.90;;;;;;4328166;33;20297;-64
2021/08/31 11:03:37;;;;;;;11.10;5.83;;;22.50;99.90;;;;;;4331859;32;20169;-63
2021/08/31 11:06:22;;;;;;;13.67;4.67;;;22.90;99.90;;;;;;4390195;32;20708;-62
2021/08/31 11:09:15;;;;;;;13.07;5.10;;;22.60;99.90;;;;;;4407334;32;20186;-63
2021/08/31 11:11:44;;;;;;;8.70;3.97;;;22.30;99.90;;;;;;4408656;32;20190;-63
2021/08/31 11:14:14;;;;;;;13.10;4.90;;;22.00;99.90;;;;;;4408232;32;20144;-62
2021/08/31 11:16:42;;;;;;;11.37;5.03;;;22.10;99.90;;;;;;4409573;32;20560;-63
2021/08/31 11:19:27;;;;;;;9.53;4.33;;;22.40;99.90;;;;;;4406844;32;20178;-62
2021/08/31 11:21:55;;;;;;;14.63;4.10;;;22.60;99.90;;;;;;4393263;32;20187;-62
2021/08/31 11:24:22;;;;;;;9.67;3.90;;;22.60;99.90;;;;;;4392381;32;20160;-64
2021/08/31 11:26:49;;;;;;;10.13;4.23;;;22.50;99.90;;;;;;4392964;32;20148;-64
2021/08/31 11:29:18;;;;;;;8.53;4.00;;;22.60;99.90;;;;;;4393536;32;20168;-63
2021/08/31 11:31:45;;;;;;;12.50;4.67;;;22.60;99.90;;;;;;4392400;32;20191;-65
2021/08/31 11:34:12;;;;;;;10.70;4.50;;;22.50;99.90;;;;;;4393564;32;20168;-64
2021/08/31 11:36:41;;;;;;;11.13;4.67;;;22.70;99.90;;;;;;4393593;32;20186;-66
2021/08/31 11:39:11;;;;;;;11.00;5.10;;;22.90;99.90;;;;;;4393614;32;20164;-62
2021/08/31 11:41:40;;;;;;;8.90;4.90;;;22.40;99.90;;;;;;4406687;32;20167;-63
2021/08/31 11:44:13;;;;;;;11.13;5.40;;;22.30;99.90;;;;;;4406632;32;20155;-63
2021/08/31 11:46:44;;;;;;;10.10;4.40;;;22.40;99.90;;;;;;4404742;32;20159;-64
2021/08/31 11:49:14;;;;;;;10.57;5.43;;;22.20;99.90;;;;;;4406789;32;20171;-64
2021/08/31 11:51:42;;;;;;;17.77;5.03;;;21.90;99.90;;;;;;4402918;32;20155;-63
2021/08/31 11:54:10;;;;;;;8.13;4.00;;;21.70;99.90;;;;;;4407378;32;20588;-63
2021/08/31 11:56:38;;;;;;;10.00;4.60;;;22.00;99.90;;;;;;4406361;32;20159;-65
2021/08/31 11:59:05;;;;;;;11.60;4.47;;;22.30;99.90;;;;;;4406342;32;20160;-63
2021/08/31 12:01:35;;;;;;;18.47;5.07;;;22.50;99.90;;;;;;4406332;32;20151;-62
2021/08/31 12:04:21;;;;;;;10.90;4.13;;;22.00;99.90;;;;;;4402549;32;20190;-63
2021/08/31 12:06:50;;;;;;;10.83;4.70;;;22.10;99.90;;;;;;4402183;32;20171;-66
2021/08/31 12:09:21;;;;;;;11.17;4.50;;;22.50;99.90;;;;;;4404971;32;20156;-66
2021/08/31 12:11:53;;;;;;;9.87;4.27;;;22.60;99.90;;;;;;4407281;32;20155;-65
2021/08/31 12:14:21;;;;;;;9.27;4.13;;;22.50;99.90;;;;;;4406893;32;20152;-64
2021/08/31 12:16:48;;;;;;;11.03;4.70;;;22.20;99.90;;;;;;4406295;32;20164;-65
2021/08/31 12:19:22;;;;;;;7.97;4.10;;;22.50;99.90;;;;;;4406524;32;20248;-65
2021/08/31 12:22:09;;;;;;;7.83;3.70;;;23.00;99.90;;;;;;4405942;32;20597;-66
2021/08/31 12:24:37;;;;;;;11.70;4.30;;;23.00;99.90;;;;;;4406017;32;20520;-65
2021/08/31 12:27:09;;;;;;;12.10;4.43;;;22.90;99.90;;;;;;4406211;32;20160;-64
2021/08/31 12:29:47;;;;;;;12.03;4.13;;;23.10;99.90;;;;;;4406317;32;20170;-65
2021/08/31 12:32:14;;;;;;;15.23;4.87;;;22.80;99.50;;;;;;4406663;32;20186;-65
2021/08/31 12:35:45;;;;;;;12.10;4.77;;;22.70;99.90;;;;;;4398442;32;20211;-66
2021/08/31 12:38:37;;;;;;;10.80;3.90;;;22.90;99.90;;;;;;4278650;33;20715;-64
2021/08/31 12:41:10;;;;;;;10.90;3.60;;;22.60;99.90;;;;;;4276950;33;20743;-64
2021/08/31 12:43:46;;;;;;;13.23;4.90;;;22.60;99.90;;;;;;4275192;33;20217;-65
2021/08/31 12:46:28;;;;;;;8.97;4.93;;;22.50;99.90;;;;;;4277055;33;20238;-62
2021/08/31 12:49:06;;;;;;;12.50;4.67;;;22.20;99.90;;;;;;4281752;33;20647;-63